sensor_id;sensor_type;location;lat;lon;timestamp;temperature;humidity
14517;DHT22;7344;50.864;4.362;2023-02-01T00:01:55;8.10;99.90
14517;DHT22;7344;50.864;4.362;2023-02-01T00:04:21;8.10;99.90
14517;DHT22;7344;50.864;4.362;2023-02-01T00:06:47;8.00;99.90
14517;DHT22;7344;50.864;4.362;2023-02-01T00:09:13;8.00;99.90
14517;DHT22;7344;50.864;4.362;2023-02-01T00:11:39;8.00;99.90
14517;DHT22;7344;50.864;4.362;2023-02-01T00:14:05;8.00;99.90
14517;DHT22;7344;50.864;4.362;2023-02-01T00:16:31;8.00;99.90
14517;DHT22;7344;50.864;4.362;2023-02-01T00:21:25;8.00;99.90
14517;DHT22;7344;50.864;4.362;2023-02-01T00:23:50;8.00;99.90
14517;DHT22;7344;50.864;4.362;2023-02-01T00:26:19;8.00;99.90
14517;DHT22;7344;50.864;4.362;2023-02-01T00:28:45;8.00;99.90
14517;DHT22;7344;50.864;4.362;2023-02-01T00:31:11;7.90;99.90
14517;DHT22;7344;50.864;4.362;2023-02-01T00:33:37;7.90;99.90
14517;DHT22;7344;50.864;4.362;2023-02-01T00:36:05;8.00;99.90
14517;DHT22;7344;50.864;4.362;2023-02-01T00:38:32;8.00;99.90
14517;DHT22;7344;50.864;4.362;2023-02-01T00:41:09;8.00;99.90
14517;DHT22;7344;50.864;4.362;2023-02-01T00:43:35;8.00;99.90
14517;DHT22;7344;50.864;4.362;2023-02-01T00:46:01;8.10;99.90
14517;DHT22;7344;50.864;4.362;2023-02-01T00:48:26;8.10;99.90
14517;DHT22;7344;50.864;4.362;2023-02-01T00:50:52;8.10;99.90
14517;DHT22;7344;50.864;4.362;2023-02-01T00:53:18;8.10;99.90
14517;DHT22;7344;50.864;4.362;2023-02-01T00:55:48;8.00;99.90
14517;DHT22;7344;50.864;4.362;2023-02-01T00:58:14;7.90;99.90
14517;DHT22;7344;50.864;4.362;2023-02-01T01:00:40;7.90;99.90
14517;DHT22;7344;50.864;4.362;2023-02-01T01:03:06;7.90;99.90
14517;DHT22;7344;50.864;4.362;2023-02-01T01:05:48;7.90;99.90
14517;DHT22;7344;50.864;4.362;2023-02-01T01:08:14;8.00;99.90
14517;DHT22;7344;50.864;4.362;2023-02-01T01:10:41;8.00;99.90
14517;DHT22;7344;50.864;4.362;2023-02-01T01:13:07;8.10;99.90
14517;DHT22;7344;50.864;4.362;2023-02-01T01:15:40;8.00;99.90
14517;DHT22;7344;50.864;4.362;2023-02-01T01:18:06;7.90;99.90
14517;DHT22;7344;50.864;4.362;2023-02-01T01:20:35;8.00;99.90
14517;DHT22;7344;50.864;4.362;2023-02-01T01:23:01;8.00;99.90
14517;DHT22;7344;50.864;4.362;2023-02-01T01:25:26;8.00;99.90
14517;DHT22;7344;50.864;4.362;2023-02-01T01:27:52;8.00;99.90
14517;DHT22;7344;50.864;4.362;2023-02-01T01:30:17;7.90;99.90
14517;DHT22;7344;50.864;4.362;2023-02-01T01:32:43;7.80;99.90
14517;DHT22;7344;50.864;4.362;2023-02-01T01:35:10;7.90;99.90
14517;DHT22;7344;50.864;4.362;2023-02-01T01:37:35;7.90;99.90
14517;DHT22;7344;50.864;4.362;2023-02-01T01:40:02;7.90;99.90
14517;DHT22;7344;50.864;4.362;2023-02-01T01:42:28;8.00;99.90
14517;DHT22;7344;50.864;4.362;2023-02-01T01:45:04;7.90;99.90
14517;DHT22;7344;50.864;4.362;2023-02-01T01:47:44;7.90;99.90
14517;DHT22;7344;50.864;4.362;2023-02-01T01:50:16;7.90;99.90
14517;DHT22;7344;50.864;4.362;2023-02-01T01:52:43;7.90;99.90
14517;DHT22;7344;50.864;4.362;2023-02-01T01:55:10;7.90;99.90
14517;DHT22;7344;50.864;4.362;2023-02-01T01:57:38;7.80;99.90
14517;DHT22;7344;50.864;4.362;2023-02-01T02:00:23;7.80;99.90
14517;DHT22;7344;50.864;4.362;2023-02-01T02:02:54;7.80;99.90
14517;DHT22;7344;50.864;4.362;2023-02-01T02:05:22;7.80;99.90
14517;DHT22;7344;50.864;4.362;2023-02-01T02:07:49;7.70;99.90
14517;DHT22;7344;50.864;4.362;2023-02-01T02:10:16;7.70;99.90
14517;DHT22;7344;50.864;4.362;2023-02-01T02:12:44;7.70;99.90
14517;DHT22;7344;50.864;4.362;2023-02-01T02:15:13;7.60;99.90
14517;DHT22;7344;50.864;4.362;2023-02-01T02:17:47;7.60;99.90
14517;DHT22;7344;50.864;4.362;2023-02-01T02:23:36;7.50;99.90
14517;DHT22;7344;50.864;4.362;2023-02-01T02:34:44;7.40;99.90
14517;DHT22;7344;50.864;4.362;2023-02-01T02:37:28;7.40;99.90
14517;DHT22;7344;50.864;4.362;2023-02-01T02:40:05;7.40;99.90
14517;DHT22;7344;50.864;4.362;2023-02-01T02:42:39;7.50;99.90
14517;DHT22;7344;50.864;4.362;2023-02-01T02:45:49;7.50;99.90
14517;DHT22;7344;50.864;4.362;2023-02-01T02:48:44;7.60;99.90
14517;DHT22;7344;50.864;4.362;2023-02-01T02:51:25;7.60;99.90
14517;DHT22;7344;50.864;4.362;2023-02-01T02:54:14;7.50;99.90
14517;DHT22;7344;50.864;4.362;2023-02-01T02:57:02;7.60;99.90
14517;DHT22;7344;50.864;4.362;2023-02-01T02:59:48;7.40;99.90
14517;DHT22;7344;50.864;4.362;2023-02-01T03:02:33;7.40;99.90
14517;DHT22;7344;50.864;4.362;2023-02-01T03:05:18;7.30;99.90
14517;DHT22;7344;50.864;4.362;2023-02-01T03:10:19;7.30;99.90
14517;DHT22;7344;50.864;4.362;2023-02-01T03:12:49;7.30;99.90
14517;DHT22;7344;50.864;4.362;2023-02-01T03:15:26;7.20;99.90
14517;DHT22;7344;50.864;4.362;2023-02-01T03:17:55;7.20;99.90
14517;DHT22;7344;50.864;4.362;2023-02-01T03:20:24;7.30;99.90
14517;DHT22;7344;50.864;4.362;2023-02-01T03:22:51;7.20;99.90
14517;DHT22;7344;50.864;4.362;2023-02-01T03:25:22;7.20;99.90
14517;DHT22;7344;50.864;4.362;2023-02-01T03:28:10;7.20;99.90
14517;DHT22;7344;50.864;4.362;2023-02-01T03:30:38;7.10;99.90
14517;DHT22;7344;50.864;4.362;2023-02-01T03:33:09;7.10;99.90
14517;DHT22;7344;50.864;4.362;2023-02-01T03:38:40;7.10;99.90
14517;DHT22;7344;50.864;4.362;2023-02-01T03:43:46;7.10;99.90
14517;DHT22;7344;50.864;4.362;2023-02-01T03:46:20;7.10;99.90
14517;DHT22;7344;50.864;4.362;2023-02-01T03:48:47;7.00;99.90
14517;DHT22;7344;50.864;4.362;2023-02-01T03:51:14;7.00;99.90
14517;DHT22;7344;50.864;4.362;2023-02-01T03:53:40;7.00;99.90
14517;DHT22;7344;50.864;4.362;2023-02-01T03:56:07;7.10;99.90
14517;DHT22;7344;50.864;4.362;2023-02-01T03:58:33;7.00;99.90
14517;DHT22;7344;50.864;4.362;2023-02-01T04:01:00;7.00;99.90
14517;DHT22;7344;50.864;4.362;2023-02-01T04:03:26;7.00;99.90
14517;DHT22;7344;50.864;4.362;2023-02-01T04:05:53;6.90;99.90
14517;DHT22;7344;50.864;4.362;2023-02-01T04:08:23;6.80;99.90
14517;DHT22;7344;50.864;4.362;2023-02-01T04:10:49;6.70;99.90
14517;DHT22;7344;50.864;4.362;2023-02-01T04:13:14;6.70;99.90
14517;DHT22;7344;50.864;4.362;2023-02-01T04:15:40;6.70;99.90
14517;DHT22;7344;50.864;4.362;2023-02-01T04:18:05;6.70;99.90
14517;DHT22;7344;50.864;4.362;2023-02-01T04:20:31;6.70;99.90
14517;DHT22;7344;50.864;4.362;2023-02-01T04:22:57;6.70;99.90
14517;DHT22;7344;50.864;4.362;2023-02-01T04:25:23;6.60;99.90
14517;DHT22;7344;50.864;4.362;2023-02-01T04:27:49;6.60;99.90
14517;DHT22;7344;50.864;4.362;2023-02-01T04:30:14;6.60;99.90
14517;DHT22;7344;50.864;4.362;2023-02-01T04:32:40;6.50;99.90
14517;DHT22;7344;50.864;4.362;2023-02-01T04:35:07;6.50;99.90
14517;DHT22;7344;50.864;4.362;2023-02-01T04:37:33;6.50;99.90
14517;DHT22;7344;50.864;4.362;2023-02-01T04:39:58;6.50;99.90
14517;DHT22;7344;50.864;4.362;2023-02-01T04:42:24;6.50;99.90
14517;DHT22;7344;50.864;4.362;2023-02-01T04:44:50;6.40;99.90
14517;DHT22;7344;50.864;4.362;2023-02-01T04:47:15;6.40;99.90
14517;DHT22;7344;50.864;4.362;2023-02-01T04:49:41;6.40;99.90
14517;DHT22;7344;50.864;4.362;2023-02-01T04:52:07;6.40;99.90
14517;DHT22;7344;50.864;4.362;2023-02-01T04:54:33;6.30;99.90
14517;DHT22;7344;50.864;4.362;2023-02-01T04:56:59;6.30;99.90
14517;DHT22;7344;50.864;4.362;2023-02-01T04:59:25;6.40;99.90
14517;DHT22;7344;50.864;4.362;2023-02-01T05:01:51;6.30;99.90
14517;DHT22;7344;50.864;4.362;2023-02-01T05:04:17;6.30;99.90
14517;DHT22;7344;50.864;4.362;2023-02-01T05:06:46;6.30;99.90
14517;DHT22;7344;50.864;4.362;2023-02-01T05:09:11;6.20;99.90
14517;DHT22;7344;50.864;4.362;2023-02-01T05:11:37;6.20;99.90
14517;DHT22;7344;50.864;4.362;2023-02-01T05:14:22;6.20;99.90
14517;DHT22;7344;50.864;4.362;2023-02-01T05:16:47;6.20;99.90
14517;DHT22;7344;50.864;4.362;2023-02-01T05:19:13;6.20;99.90
14517;DHT22;7344;50.864;4.362;2023-02-01T05:21:39;6.20;99.90
14517;DHT22;7344;50.864;4.362;2023-02-01T05:24:05;6.20;99.90
14517;DHT22;7344;50.864;4.362;2023-02-01T05:26:40;6.10;99.90
14517;DHT22;7344;50.864;4.362;2023-02-01T05:29:06;6.10;99.90
14517;DHT22;7344;50.864;4.362;2023-02-01T05:31:32;6.00;99.90
14517;DHT22;7344;50.864;4.362;2023-02-01T05:33:58;6.00;99.90
14517;DHT22;7344;50.864;4.362;2023-02-01T05:36:23;6.00;99.90
14517;DHT22;7344;50.864;4.362;2023-02-01T05:38:49;5.90;99.90
14517;DHT22;7344;50.864;4.362;2023-02-01T05:41:15;5.90;99.90
14517;DHT22;7344;50.864;4.362;2023-02-01T05:43:40;6.00;99.90
14517;DHT22;7344;50.864;4.362;2023-02-01T05:46:06;5.90;99.90
14517;DHT22;7344;50.864;4.362;2023-02-01T05:48:31;5.90;99.90
14517;DHT22;7344;50.864;4.362;2023-02-01T05:50:57;5.80;99.90
14517;DHT22;7344;50.864;4.362;2023-02-01T05:53:23;5.80;99.90
14517;DHT22;7344;50.864;4.362;2023-02-01T05:55:48;5.70;99.90
14517;DHT22;7344;50.864;4.362;2023-02-01T05:58:14;5.60;99.90
14517;DHT22;7344;50.864;4.362;2023-02-01T06:00:39;5.60;99.90
14517;DHT22;7344;50.864;4.362;2023-02-01T06:03:05;5.60;99.90
14517;DHT22;7344;50.864;4.362;2023-02-01T06:05:31;5.60;99.90
14517;DHT22;7344;50.864;4.362;2023-02-01T06:07:57;5.60;99.90
14517;DHT22;7344;50.864;4.362;2023-02-01T06:10:23;5.50;99.90
14517;DHT22;7344;50.864;4.362;2023-02-01T06:12:49;5.50;99.90
14517;DHT22;7344;50.864;4.362;2023-02-01T06:15:15;5.50;99.90
14517;DHT22;7344;50.864;4.362;2023-02-01T06:17:42;5.50;99.90
14517;DHT22;7344;50.864;4.362;2023-02-01T06:20:10;5.50;99.90
14517;DHT22;7344;50.864;4.362;2023-02-01T06:22:36;5.50;99.90
14517;DHT22;7344;50.864;4.362;2023-02-01T06:25:06;5.40;99.90
14517;DHT22;7344;50.864;4.362;2023-02-01T06:27:33;5.40;99.90
14517;DHT22;7344;50.864;4.362;2023-02-01T06:29:58;5.40;99.90
14517;DHT22;7344;50.864;4.362;2023-02-01T06:32:24;5.50;99.90
14517;DHT22;7344;50.864;4.362;2023-02-01T06:34:50;5.50;99.90
14517;DHT22;7344;50.864;4.362;2023-02-01T06:37:18;5.50;99.90
14517;DHT22;7344;50.864;4.362;2023-02-01T06:39:44;5.50;99.90
14517;DHT22;7344;50.864;4.362;2023-02-01T06:42:09;5.60;99.90
14517;DHT22;7344;50.864;4.362;2023-02-01T06:44:35;5.60;99.90
14517;DHT22;7344;50.864;4.362;2023-02-01T06:47:00;5.60;99.90
14517;DHT22;7344;50.864;4.362;2023-02-01T06:49:26;5.70;99.90
14517;DHT22;7344;50.864;4.362;2023-02-01T06:51:52;5.60;99.90
14517;DHT22;7344;50.864;4.362;2023-02-01T06:54:17;5.60;99.90
14517;DHT22;7344;50.864;4.362;2023-02-01T06:56:43;5.60;99.90
14517;DHT22;7344;50.864;4.362;2023-02-01T06:59:10;5.60;99.90
14517;DHT22;7344;50.864;4.362;2023-02-01T07:01:35;5.60;99.90
14517;DHT22;7344;50.864;4.362;2023-02-01T07:04:01;5.60;99.90
14517;DHT22;7344;50.864;4.362;2023-02-01T07:06:26;5.50;99.90
14517;DHT22;7344;50.864;4.362;2023-02-01T07:08:52;5.60;99.90
14517;DHT22;7344;50.864;4.362;2023-02-01T07:11:21;5.50;99.90
14517;DHT22;7344;50.864;4.362;2023-02-01T07:13:47;5.50;99.90
14517;DHT22;7344;50.864;4.362;2023-02-01T07:16:15;5.50;99.90
14517;DHT22;7344;50.864;4.362;2023-02-01T07:18:41;5.50;99.90
14517;DHT22;7344;50.864;4.362;2023-02-01T07:21:07;5.60;99.90
14517;DHT22;7344;50.864;4.362;2023-02-01T07:23:33;5.60;99.90
14517;DHT22;7344;50.864;4.362;2023-02-01T07:26:02;5.60;99.90
14517;DHT22;7344;50.864;4.362;2023-02-01T07:28:31;5.60;99.90
14517;DHT22;7344;50.864;4.362;2023-02-01T07:31:08;5.60;99.90
14517;DHT22;7344;50.864;4.362;2023-02-01T07:33:34;5.70;99.90
14517;DHT22;7344;50.864;4.362;2023-02-01T07:36:02;5.70;99.90
14517;DHT22;7344;50.864;4.362;2023-02-01T07:38:27;5.70;99.90
14517;DHT22;7344;50.864;4.362;2023-02-01T07:40:58;5.80;99.90
14517;DHT22;7344;50.864;4.362;2023-02-01T07:43:24;5.90;99.90
14517;DHT22;7344;50.864;4.362;2023-02-01T07:45:53;5.90;99.90
14517;DHT22;7344;50.864;4.362;2023-02-01T07:48:22;6.00;99.90
14517;DHT22;7344;50.864;4.362;2023-02-01T07:50:48;6.10;99.90
14517;DHT22;7344;50.864;4.362;2023-02-01T07:53:14;6.10;99.90
14517;DHT22;7344;50.864;4.362;2023-02-01T07:55:40;6.10;99.90
14517;DHT22;7344;50.864;4.362;2023-02-01T07:58:06;6.20;99.90
14517;DHT22;7344;50.864;4.362;2023-02-01T08:00:32;6.20;99.90
14517;DHT22;7344;50.864;4.362;2023-02-01T08:03:16;6.30;99.90
14517;DHT22;7344;50.864;4.362;2023-02-01T08:05:42;6.30;99.90
14517;DHT22;7344;50.864;4.362;2023-02-01T08:08:07;6.50;99.90
14517;DHT22;7344;50.864;4.362;2023-02-01T08:10:34;6.60;99.90
14517;DHT22;7344;50.864;4.362;2023-02-01T08:13:00;6.70;99.90
14517;DHT22;7344;50.864;4.362;2023-02-01T08:15:27;6.80;99.90
14517;DHT22;7344;50.864;4.362;2023-02-01T08:17:53;6.80;99.90
14517;DHT22;7344;50.864;4.362;2023-02-01T08:20:20;7.10;99.90
14517;DHT22;7344;50.864;4.362;2023-02-01T08:22:52;7.10;99.90
14517;DHT22;7344;50.864;4.362;2023-02-01T08:25:18;7.20;99.90
14517;DHT22;7344;50.864;4.362;2023-02-01T08:27:44;7.10;99.90
14517;DHT22;7344;50.864;4.362;2023-02-01T08:30:10;7.10;99.90
14517;DHT22;7344;50.864;4.362;2023-02-01T08:32:36;7.00;99.90
14517;DHT22;7344;50.864;4.362;2023-02-01T08:35:03;7.00;99.90
14517;DHT22;7344;50.864;4.362;2023-02-01T08:37:29;6.90;99.90
14517;DHT22;7344;50.864;4.362;2023-02-01T08:39:55;7.00;99.90
14517;DHT22;7344;50.864;4.362;2023-02-01T08:42:20;6.90;99.90
14517;DHT22;7344;50.864;4.362;2023-02-01T08:45:05;6.90;99.90
14517;DHT22;7344;50.864;4.362;2023-02-01T08:47:33;7.00;99.90
14517;DHT22;7344;50.864;4.362;2023-02-01T08:49:59;7.30;99.90
14517;DHT22;7344;50.864;4.362;2023-02-01T08:52:25;7.50;99.90
14517;DHT22;7344;50.864;4.362;2023-02-01T08:54:50;7.70;99.90
14517;DHT22;7344;50.864;4.362;2023-02-01T08:57:16;7.70;99.90
14517;DHT22;7344;50.864;4.362;2023-02-01T08:59:42;7.90;99.90
14517;DHT22;7344;50.864;4.362;2023-02-01T09:02:13;7.80;99.90
14517;DHT22;7344;50.864;4.362;2023-02-01T09:04:40;8.00;99.90
14517;DHT22;7344;50.864;4.362;2023-02-01T09:07:06;8.40;99.90
14517;DHT22;7344;50.864;4.362;2023-02-01T09:09:31;8.70;99.90
14517;DHT22;7344;50.864;4.362;2023-02-01T09:11:57;8.80;99.90
14517;DHT22;7344;50.864;4.362;2023-02-01T09:14:22;8.90;99.90
14517;DHT22;7344;50.864;4.362;2023-02-01T09:16:48;9.40;99.90
14517;DHT22;7344;50.864;4.362;2023-02-01T09:19:14;10.20;99.90
14517;DHT22;7344;50.864;4.362;2023-02-01T09:21:40;10.50;99.90
14517;DHT22;7344;50.864;4.362;2023-02-01T09:24:06;11.00;99.90
14517;DHT22;7344;50.864;4.362;2023-02-01T09:26:32;10.90;99.90
14517;DHT22;7344;50.864;4.362;2023-02-01T09:28:58;11.30;99.90
14517;DHT22;7344;50.864;4.362;2023-02-01T09:31:24;11.90;99.90
14517;DHT22;7344;50.864;4.362;2023-02-01T09:33:50;12.10;99.90
14517;DHT22;7344;50.864;4.362;2023-02-01T09:36:15;12.30;99.90
14517;DHT22;7344;50.864;4.362;2023-02-01T09:38:41;12.80;99.90
14517;DHT22;7344;50.864;4.362;2023-02-01T09:41:39;13.00;99.90
14517;DHT22;7344;50.864;4.362;2023-02-01T09:46:47;14.50;98.90
14517;DHT22;7344;50.864;4.362;2023-02-01T09:49:16;14.80;96.50
14517;DHT22;7344;50.864;4.362;2023-02-01T09:51:46;14.60;96.50
14517;DHT22;7344;50.864;4.362;2023-02-01T09:54:16;15.30;96.00
14517;DHT22;7344;50.864;4.362;2023-02-01T09:59:46;14.60;95.40
14517;DHT22;7344;50.864;4.362;2023-02-01T10:02:19;14.70;96.20
14517;DHT22;7344;50.864;4.362;2023-02-01T10:04:46;14.80;95.10
14517;DHT22;7344;50.864;4.362;2023-02-01T10:10:04;14.10;96.60
14517;DHT22;7344;50.864;4.362;2023-02-01T10:13:05;14.50;96.70
14517;DHT22;7344;50.864;4.362;2023-02-01T10:24:02;14.00;96.70
14517;DHT22;7344;50.864;4.362;2023-02-01T10:26:33;13.40;98.00
14517;DHT22;7344;50.864;4.362;2023-02-01T10:29:03;13.20;98.80
14517;DHT22;7344;50.864;4.362;2023-02-01T10:31:31;13.80;98.40
14517;DHT22;7344;50.864;4.362;2023-02-01T10:34:04;13.90;97.10
14517;DHT22;7344;50.864;4.362;2023-02-01T10:36:36;13.80;97.10
14517;DHT22;7344;50.864;4.362;2023-02-01T10:39:05;13.80;97.30
14517;DHT22;7344;50.864;4.362;2023-02-01T10:41:35;13.60;97.50
14517;DHT22;7344;50.864;4.362;2023-02-01T10:44:04;13.50;97.70
14517;DHT22;7344;50.864;4.362;2023-02-01T10:46:32;13.70;98.10
14517;DHT22;7344;50.864;4.362;2023-02-01T10:49:00;13.40;97.70
14517;DHT22;7344;50.864;4.362;2023-02-01T10:54:31;13.80;97.70
14517;DHT22;7344;50.864;4.362;2023-02-01T10:56:57;13.60;98.30
14517;DHT22;7344;50.864;4.362;2023-02-01T10:59:28;14.00;97.60
14517;DHT22;7344;50.864;4.362;2023-02-01T11:02:00;14.00;97.10
14517;DHT22;7344;50.864;4.362;2023-02-01T11:04:30;13.30;97.60
14517;DHT22;7344;50.864;4.362;2023-02-01T11:07:17;12.90;98.30
14517;DHT22;7344;50.864;4.362;2023-02-01T11:09:50;12.40;99.90
14517;DHT22;7344;50.864;4.362;2023-02-01T11:12:30;12.10;99.90
14517;DHT22;7344;50.864;4.362;2023-02-01T11:17:47;11.70;99.90
14517;DHT22;7344;50.864;4.362;2023-02-01T11:22:57;11.90;99.90
14517;DHT22;7344;50.864;4.362;2023-02-01T11:25:23;11.90;99.90
14517;DHT22;7344;50.864;4.362;2023-02-01T11:27:50;12.00;99.90
14517;DHT22;7344;50.864;4.362;2023-02-01T11:30:31;12.00;99.90
14517;DHT22;7344;50.864;4.362;2023-02-01T11:32:57;12.10;99.90
14517;DHT22;7344;50.864;4.362;2023-02-01T11:35:24;11.80;99.90
14517;DHT22;7344;50.864;4.362;2023-02-01T11:37:55;11.60;99.90
14517;DHT22;7344;50.864;4.362;2023-02-01T11:40:36;11.30;99.90
14517;DHT22;7344;50.864;4.362;2023-02-01T11:43:25;11.20;99.90
14517;DHT22;7344;50.864;4.362;2023-02-01T11:46:00;11.10;99.90
14517;DHT22;7344;50.864;4.362;2023-02-01T11:48:27;11.00;99.90
14517;DHT22;7344;50.864;4.362;2023-02-01T11:54:24;10.90;99.90
14517;DHT22;7344;50.864;4.362;2023-02-01T12:10:39;12.20;99.50
14517;DHT22;7344;50.864;4.362;2023-02-01T12:13:18;11.90;99.30
14517;DHT22;7344;50.864;4.362;2023-02-01T12:21:36;11.30;99.90
14517;DHT22;7344;50.864;4.362;2023-02-01T12:24:32;11.70;99.90
14517;DHT22;7344;50.864;4.362;2023-02-01T12:35:01;12.50;98.50
14517;DHT22;7344;50.864;4.362;2023-02-01T12:40:11;12.40;97.20
14517;DHT22;7344;50.864;4.362;2023-02-01T12:42:43;12.40;97.40
14517;DHT22;7344;50.864;4.362;2023-02-01T12:48:00;12.40;98.00
14517;DHT22;7344;50.864;4.362;2023-02-01T12:53:13;12.80;96.30
14517;DHT22;7344;50.864;4.362;2023-02-01T12:55:53;12.90;96.10
14517;DHT22;7344;50.864;4.362;2023-02-01T13:01:29;13.20;95.40
14517;DHT22;7344;50.864;4.362;2023-02-01T13:04:11;13.00;95.30
14517;DHT22;7344;50.864;4.362;2023-02-01T13:11:55;12.40;96.70
14517;DHT22;7344;50.864;4.362;2023-02-01T13:17:00;12.20;97.10
14517;DHT22;7344;50.864;4.362;2023-02-01T13:19:32;12.20;97.30
14517;DHT22;7344;50.864;4.362;2023-02-01T13:22:06;12.00;97.30
14517;DHT22;7344;50.864;4.362;2023-02-01T13:24:44;11.90;98.10
14517;DHT22;7344;50.864;4.362;2023-02-01T13:27:15;12.10;97.80
14517;DHT22;7344;50.864;4.362;2023-02-01T13:35:00;11.80;98.00
14517;DHT22;7344;50.864;4.362;2023-02-01T13:38:00;11.80;98.30
14517;DHT22;7344;50.864;4.362;2023-02-01T13:40:53;12.10;98.10
14517;DHT22;7344;50.864;4.362;2023-02-01T13:43:26;12.10;97.90
14517;DHT22;7344;50.864;4.362;2023-02-01T13:46:02;12.00;98.00
14517;DHT22;7344;50.864;4.362;2023-02-01T13:48:39;12.00;98.30
14517;DHT22;7344;50.864;4.362;2023-02-01T13:51:07;11.90;98.70
14517;DHT22;7344;50.864;4.362;2023-02-01T13:53:36;11.70;98.60
14517;DHT22;7344;50.864;4.362;2023-02-01T13:56:13;11.60;98.60
14517;DHT22;7344;50.864;4.362;2023-02-01T13:58:42;11.60;99.40
14517;DHT22;7344;50.864;4.362;2023-02-01T14:03:58;11.60;99.10
14517;DHT22;7344;50.864;4.362;2023-02-01T14:11:38;11.80;99.10
14517;DHT22;7344;50.864;4.362;2023-02-01T14:16:39;11.70;99.80
14517;DHT22;7344;50.864;4.362;2023-02-01T14:19:09;11.50;99.50
14517;DHT22;7344;50.864;4.362;2023-02-01T14:21:47;11.50;99.90
14517;DHT22;7344;50.864;4.362;2023-02-01T14:24:27;11.50;99.90
14517;DHT22;7344;50.864;4.362;2023-02-01T14:26:56;11.30;99.90
14517;DHT22;7344;50.864;4.362;2023-02-01T14:29:29;11.30;99.90
14517;DHT22;7344;50.864;4.362;2023-02-01T14:34:48;11.00;99.90
14517;DHT22;7344;50.864;4.362;2023-02-01T14:42:45;10.90;99.90
14517;DHT22;7344;50.864;4.362;2023-02-01T14:55:37;10.90;99.90
14517;DHT22;7344;50.864;4.362;2023-02-01T14:58:14;10.90;99.90
14517;DHT22;7344;50.864;4.362;2023-02-01T15:00:53;10.80;99.90
14517;DHT22;7344;50.864;4.362;2023-02-01T15:03:34;10.90;99.90
14517;DHT22;7344;50.864;4.362;2023-02-01T15:06:02;10.90;99.90
14517;DHT22;7344;50.864;4.362;2023-02-01T15:08:35;10.90;99.90
14517;DHT22;7344;50.864;4.362;2023-02-01T15:11:06;11.00;99.90
14517;DHT22;7344;50.864;4.362;2023-02-01T15:13:32;10.90;99.90
14517;DHT22;7344;50.864;4.362;2023-02-01T15:16:14;10.90;99.90
14517;DHT22;7344;50.864;4.362;2023-02-01T15:18:41;10.80;99.90
14517;DHT22;7344;50.864;4.362;2023-02-01T15:21:15;10.80;99.90
14517;DHT22;7344;50.864;4.362;2023-02-01T15:23:41;10.70;99.90
14517;DHT22;7344;50.864;4.362;2023-02-01T15:26:07;10.50;99.90
14517;DHT22;7344;50.864;4.362;2023-02-01T15:28:33;10.50;99.90
14517;DHT22;7344;50.864;4.362;2023-02-01T15:31:01;10.40;99.90
14517;DHT22;7344;50.864;4.362;2023-02-01T15:33:27;10.40;99.90
14517;DHT22;7344;50.864;4.362;2023-02-01T15:36:10;10.30;99.90
14517;DHT22;7344;50.864;4.362;2023-02-01T15:38:41;10.40;99.90
14517;DHT22;7344;50.864;4.362;2023-02-01T15:41:40;10.30;99.90
14517;DHT22;7344;50.864;4.362;2023-02-01T15:46:31;10.30;99.90
14517;DHT22;7344;50.864;4.362;2023-02-01T15:48:59;10.30;99.90
14517;DHT22;7344;50.864;4.362;2023-02-01T15:51:27;10.20;99.90
14517;DHT22;7344;50.864;4.362;2023-02-01T15:54:00;10.30;99.90
14517;DHT22;7344;50.864;4.362;2023-02-01T15:56:35;10.30;99.90
14517;DHT22;7344;50.864;4.362;2023-02-01T15:59:05;10.30;99.90
14517;DHT22;7344;50.864;4.362;2023-02-01T16:01:37;10.30;99.90
14517;DHT22;7344;50.864;4.362;2023-02-01T16:06:45;10.30;99.90
14517;DHT22;7344;50.864;4.362;2023-02-01T16:09:14;10.20;99.90
14517;DHT22;7344;50.864;4.362;2023-02-01T16:11:58;10.20;99.90
14517;DHT22;7344;50.864;4.362;2023-02-01T16:14:24;10.20;99.90
14517;DHT22;7344;50.864;4.362;2023-02-01T16:16:52;10.20;99.90
14517;DHT22;7344;50.864;4.362;2023-02-01T16:19:18;10.10;99.90
14517;DHT22;7344;50.864;4.362;2023-02-01T16:21:44;10.20;99.90
14517;DHT22;7344;50.864;4.362;2023-02-01T16:24:11;10.20;99.90
14517;DHT22;7344;50.864;4.362;2023-02-01T16:26:39;10.10;99.90
14517;DHT22;7344;50.864;4.362;2023-02-01T16:29:05;10.10;99.90
14517;DHT22;7344;50.864;4.362;2023-02-01T16:31:36;10.10;99.90
14517;DHT22;7344;50.864;4.362;2023-02-01T16:34:03;10.00;99.90
14517;DHT22;7344;50.864;4.362;2023-02-01T16:36:30;10.10;99.90
14517;DHT22;7344;50.864;4.362;2023-02-01T16:38:56;10.00;99.90
14517;DHT22;7344;50.864;4.362;2023-02-01T16:41:23;10.00;99.90
14517;DHT22;7344;50.864;4.362;2023-02-01T16:43:53;9.90;99.90
14517;DHT22;7344;50.864;4.362;2023-02-01T16:46:21;10.00;99.90
14517;DHT22;7344;50.864;4.362;2023-02-01T16:48:57;10.00;99.90
14517;DHT22;7344;50.864;4.362;2023-02-01T16:51:25;9.90;99.90
14517;DHT22;7344;50.864;4.362;2023-02-01T16:53:51;9.90;99.90
14517;DHT22;7344;50.864;4.362;2023-02-01T16:56:20;9.90;99.90
14517;DHT22;7344;50.864;4.362;2023-02-01T16:58:46;9.90;99.90
14517;DHT22;7344;50.864;4.362;2023-02-01T17:01:14;9.90;99.90
14517;DHT22;7344;50.864;4.362;2023-02-01T17:03:40;9.90;99.90
14517;DHT22;7344;50.864;4.362;2023-02-01T17:06:11;9.80;99.90
14517;DHT22;7344;50.864;4.362;2023-02-01T17:08:41;9.80;99.90
14517;DHT22;7344;50.864;4.362;2023-02-01T17:11:07;9.80;99.90
14517;DHT22;7344;50.864;4.362;2023-02-01T17:13:34;9.80;99.90
14517;DHT22;7344;50.864;4.362;2023-02-01T17:16:06;9.80;99.90
14517;DHT22;7344;50.864;4.362;2023-02-01T17:18:35;9.70;99.90
14517;DHT22;7344;50.864;4.362;2023-02-01T17:21:02;9.80;99.90
14517;DHT22;7344;50.864;4.362;2023-02-01T17:23:29;9.70;99.90
14517;DHT22;7344;50.864;4.362;2023-02-01T17:25:55;9.70;99.90
14517;DHT22;7344;50.864;4.362;2023-02-01T17:28:22;9.80;99.90
14517;DHT22;7344;50.864;4.362;2023-02-01T17:30:48;9.80;99.90
14517;DHT22;7344;50.864;4.362;2023-02-01T17:35:47;9.70;99.90
14517;DHT22;7344;50.864;4.362;2023-02-01T17:38:13;9.70;99.90
14517;DHT22;7344;50.864;4.362;2023-02-01T17:40:39;9.60;99.90
14517;DHT22;7344;50.864;4.362;2023-02-01T17:43:05;9.50;99.90
14517;DHT22;7344;50.864;4.362;2023-02-01T17:45:37;9.50;99.90
14517;DHT22;7344;50.864;4.362;2023-02-01T17:48:05;9.50;99.90
14517;DHT22;7344;50.864;4.362;2023-02-01T17:50:34;9.50;99.90
14517;DHT22;7344;50.864;4.362;2023-02-01T17:53:00;9.40;99.90
14517;DHT22;7344;50.864;4.362;2023-02-01T17:55:27;9.40;99.90
14517;DHT22;7344;50.864;4.362;2023-02-01T17:57:53;9.40;99.90
14517;DHT22;7344;50.864;4.362;2023-02-01T18:00:19;9.30;99.90
14517;DHT22;7344;50.864;4.362;2023-02-01T18:02:44;9.40;99.90
14517;DHT22;7344;50.864;4.362;2023-02-01T18:05:25;9.30;99.90
14517;DHT22;7344;50.864;4.362;2023-02-01T18:07:51;9.30;99.90
14517;DHT22;7344;50.864;4.362;2023-02-01T18:10:17;9.30;99.90
14517;DHT22;7344;50.864;4.362;2023-02-01T18:12:43;9.30;99.90
14517;DHT22;7344;50.864;4.362;2023-02-01T18:15:18;9.30;99.90
14517;DHT22;7344;50.864;4.362;2023-02-01T18:17:44;9.40;99.90
14517;DHT22;7344;50.864;4.362;2023-02-01T18:20:18;9.40;99.90
14517;DHT22;7344;50.864;4.362;2023-02-01T18:22:44;9.30;99.90
14517;DHT22;7344;50.864;4.362;2023-02-01T18:27:45;9.30;99.90
14517;DHT22;7344;50.864;4.362;2023-02-01T18:30:11;9.30;99.90
14517;DHT22;7344;50.864;4.362;2023-02-01T18:32:38;9.40;99.90
14517;DHT22;7344;50.864;4.362;2023-02-01T18:37:40;9.40;99.90